sensor_id;sensor_type;location;lat;lon;timestamp;P1;durP1;ratioP1;P2;durP2;ratioP2
20621;SDS011;10470;42.670;23.354;2023-04-03T00:00:29;20.97;;;10.87;;
20621;SDS011;10470;42.670;23.354;2023-04-03T00:02:55;18.70;;;11.03;;
20621;SDS011;10470;42.670;23.354;2023-04-03T00:05:21;17.37;;;9.70;;
20621;SDS011;10470;42.670;23.354;2023-04-03T00:07:46;17.23;;;10.50;;
20621;SDS011;10470;42.670;23.354;2023-04-03T00:10:11;17.63;;;10.23;;
20621;SDS011;10470;42.670;23.354;2023-04-03T00:12:38;15.03;;;9.90;;
20621;SDS011;10470;42.670;23.354;2023-04-03T00:15:04;18.83;;;10.03;;
20621;SDS011;10470;42.670;23.354;2023-04-03T00:17:30;17.67;;;9.23;;
20621;SDS011;10470;42.670;23.354;2023-04-03T00:19:55;15.23;;;8.43;;
20621;SDS011;10470;42.670;23.354;2023-04-03T00:22:21;13.33;;;7.93;;
20621;SDS011;10470;42.670;23.354;2023-04-03T00:24:46;10.57;;;6.87;;
20621;SDS011;10470;42.670;23.354;2023-04-03T00:27:12;14.50;;;8.07;;
20621;SDS011;10470;42.670;23.354;2023-04-03T00:29:37;11.80;;;7.73;;
20621;SDS011;10470;42.670;23.354;2023-04-03T00:32:03;12.20;;;7.90;;
20621;SDS011;10470;42.670;23.354;2023-04-03T00:34:28;12.13;;;7.17;;
20621;SDS011;10470;42.670;23.354;2023-04-03T00:36:53;12.17;;;7.40;;
20621;SDS011;10470;42.670;23.354;2023-04-03T00:39:19;10.43;;;6.90;;
20621;SDS011;10470;42.670;23.354;2023-04-03T00:41:45;12.10;;;8.13;;
20621;SDS011;10470;42.670;23.354;2023-04-03T00:47:03;14.60;;;8.17;;
20621;SDS011;10470;42.670;23.354;2023-04-03T00:49:32;10.80;;;7.70;;
20621;SDS011;10470;42.670;23.354;2023-04-03T00:51:57;10.23;;;6.80;;
20621;SDS011;10470;42.670;23.354;2023-04-03T00:54:24;11.80;;;7.60;;
20621;SDS011;10470;42.670;23.354;2023-04-03T00:56:51;10.83;;;6.47;;
20621;SDS011;10470;42.670;23.354;2023-04-03T00:59:19;8.40;;;6.27;;
20621;SDS011;10470;42.670;23.354;2023-04-03T01:01:50;6.53;;;5.40;;
20621;SDS011;10470;42.670;23.354;2023-04-03T01:04:29;10.43;;;6.47;;
20621;SDS011;10470;42.670;23.354;2023-04-03T01:07:01;9.13;;;5.57;;
20621;SDS011;10470;42.670;23.354;2023-04-03T01:09:33;9.43;;;5.80;;
20621;SDS011;10470;42.670;23.354;2023-04-03T01:14:49;9.37;;;5.10;;
20621;SDS011;10470;42.670;23.354;2023-04-03T01:17:50;9.83;;;5.30;;
20621;SDS011;10470;42.670;23.354;2023-04-03T01:25:34;8.47;;;5.33;;
20621;SDS011;10470;42.670;23.354;2023-04-03T01:28:02;7.10;;;5.20;;
20621;SDS011;10470;42.670;23.354;2023-04-03T01:30:33;7.43;;;4.90;;
20621;SDS011;10470;42.670;23.354;2023-04-03T01:33:02;6.57;;;4.33;;
20621;SDS011;10470;42.670;23.354;2023-04-03T01:35:27;7.70;;;5.00;;
20621;SDS011;10470;42.670;23.354;2023-04-03T01:37:53;11.03;;;5.67;;
20621;SDS011;10470;42.670;23.354;2023-04-03T01:40:19;8.20;;;5.43;;
20621;SDS011;10470;42.670;23.354;2023-04-03T01:42:44;9.50;;;5.67;;
20621;SDS011;10470;42.670;23.354;2023-04-03T01:45:10;8.10;;;5.07;;
20621;SDS011;10470;42.670;23.354;2023-04-03T01:47:35;10.27;;;5.60;;
20621;SDS011;10470;42.670;23.354;2023-04-03T01:50:01;9.93;;;5.90;;
20621;SDS011;10470;42.670;23.354;2023-04-03T01:52:26;8.87;;;6.30;;
20621;SDS011;10470;42.670;23.354;2023-04-03T01:54:52;10.43;;;6.30;;
20621;SDS011;10470;42.670;23.354;2023-04-03T01:57:19;8.70;;;6.53;;
20621;SDS011;10470;42.670;23.354;2023-04-03T01:59:44;9.90;;;6.53;;
20621;SDS011;10470;42.670;23.354;2023-04-03T02:02:10;13.60;;;7.20;;
20621;SDS011;10470;42.670;23.354;2023-04-03T02:04:37;11.40;;;7.10;;
20621;SDS011;10470;42.670;23.354;2023-04-03T02:07:03;12.83;;;7.33;;
20621;SDS011;10470;42.670;23.354;2023-04-03T02:09:28;12.57;;;7.57;;
20621;SDS011;10470;42.670;23.354;2023-04-03T02:11:54;10.20;;;6.87;;
20621;SDS011;10470;42.670;23.354;2023-04-03T02:14:20;17.20;;;8.93;;
20621;SDS011;10470;42.670;23.354;2023-04-03T02:16:46;22.17;;;11.07;;
20621;SDS011;10470;42.670;23.354;2023-04-03T02:19:12;19.87;;;11.43;;
20621;SDS011;10470;42.670;23.354;2023-04-03T02:21:37;22.97;;;11.50;;
20621;SDS011;10470;42.670;23.354;2023-04-03T02:24:03;19.43;;;11.13;;
20621;SDS011;10470;42.670;23.354;2023-04-03T02:26:28;22.27;;;11.33;;
20621;SDS011;10470;42.670;23.354;2023-04-03T02:28:54;19.73;;;10.80;;
20621;SDS011;10470;42.670;23.354;2023-04-03T02:31:19;20.30;;;12.03;;
20621;SDS011;10470;42.670;23.354;2023-04-03T02:33:45;22.60;;;11.27;;
20621;SDS011;10470;42.670;23.354;2023-04-03T02:36:11;17.53;;;11.43;;
20621;SDS011;10470;42.670;23.354;2023-04-03T02:38:36;16.43;;;10.37;;
20621;SDS011;10470;42.670;23.354;2023-04-03T02:41:02;17.00;;;10.23;;
20621;SDS011;10470;42.670;23.354;2023-04-03T02:43:30;17.73;;;10.03;;
20621;SDS011;10470;42.670;23.354;2023-04-03T02:45:55;14.73;;;9.67;;
20621;SDS011;10470;42.670;23.354;2023-04-03T02:48:21;11.70;;;8.67;;
20621;SDS011;10470;42.670;23.354;2023-04-03T02:50:47;12.67;;;8.03;;
20621;SDS011;10470;42.670;23.354;2023-04-03T02:53:13;12.83;;;8.00;;
20621;SDS011;10470;42.670;23.354;2023-04-03T02:55:38;9.93;;;6.80;;
20621;SDS011;10470;42.670;23.354;2023-04-03T02:58:04;16.37;;;7.37;;
20621;SDS011;10470;42.670;23.354;2023-04-03T03:00:30;11.33;;;7.20;;
20621;SDS011;10470;42.670;23.354;2023-04-03T03:02:55;14.80;;;7.50;;
20621;SDS011;10470;42.670;23.354;2023-04-03T03:05:21;11.87;;;7.30;;
20621;SDS011;10470;42.670;23.354;2023-04-03T03:07:46;14.47;;;8.00;;
20621;SDS011;10470;42.670;23.354;2023-04-03T03:10:12;12.73;;;7.70;;
20621;SDS011;10470;42.670;23.354;2023-04-03T03:12:38;11.00;;;8.27;;
20621;SDS011;10470;42.670;23.354;2023-04-03T03:15:03;14.90;;;8.30;;
20621;SDS011;10470;42.670;23.354;2023-04-03T03:17:29;11.77;;;7.77;;
20621;SDS011;10470;42.670;23.354;2023-04-03T03:19:55;12.33;;;8.40;;
20621;SDS011;10470;42.670;23.354;2023-04-03T03:22:20;12.83;;;7.60;;
20621;SDS011;10470;42.670;23.354;2023-04-03T03:24:45;12.43;;;7.83;;
20621;SDS011;10470;42.670;23.354;2023-04-03T03:27:11;9.80;;;7.17;;
20621;SDS011;10470;42.670;23.354;2023-04-03T03:29:37;10.80;;;6.87;;
20621;SDS011;10470;42.670;23.354;2023-04-03T03:32:02;11.40;;;7.00;;
20621;SDS011;10470;42.670;23.354;2023-04-03T03:34:28;13.47;;;7.50;;
20621;SDS011;10470;42.670;23.354;2023-04-03T03:36:53;12.40;;;7.27;;
20621;SDS011;10470;42.670;23.354;2023-04-03T03:39:20;11.67;;;7.37;;
20621;SDS011;10470;42.670;23.354;2023-04-03T03:41:45;10.80;;;7.63;;
20621;SDS011;10470;42.670;23.354;2023-04-03T03:44:10;14.90;;;7.17;;
20621;SDS011;10470;42.670;23.354;2023-04-03T03:46:36;13.97;;;7.43;;
20621;SDS011;10470;42.670;23.354;2023-04-03T03:49:01;16.67;;;8.33;;
20621;SDS011;10470;42.670;23.354;2023-04-03T03:51:27;17.37;;;8.53;;
20621;SDS011;10470;42.670;23.354;2023-04-03T03:53:52;22.63;;;9.83;;
20621;SDS011;10470;42.670;23.354;2023-04-03T03:56:18;22.17;;;9.70;;
20621;SDS011;10470;42.670;23.354;2023-04-03T03:58:43;22.83;;;10.73;;
20621;SDS011;10470;42.670;23.354;2023-04-03T04:01:09;23.47;;;9.23;;
20621;SDS011;10470;42.670;23.354;2023-04-03T04:03:34;17.00;;;7.83;;
20621;SDS011;10470;42.670;23.354;2023-04-03T04:05:59;17.83;;;7.80;;
20621;SDS011;10470;42.670;23.354;2023-04-03T04:08:25;17.80;;;7.90;;
20621;SDS011;10470;42.670;23.354;2023-04-03T04:10:50;21.13;;;8.33;;
20621;SDS011;10470;42.670;23.354;2023-04-03T04:13:16;20.83;;;8.53;;
20621;SDS011;10470;42.670;23.354;2023-04-03T04:15:42;16.73;;;7.37;;
20621;SDS011;10470;42.670;23.354;2023-04-03T04:18:08;12.37;;;6.50;;
20621;SDS011;10470;42.670;23.354;2023-04-03T04:20:33;19.07;;;8.43;;
20621;SDS011;10470;42.670;23.354;2023-04-03T04:22:59;18.17;;;10.60;;
20621;SDS011;10470;42.670;23.354;2023-04-03T04:25:24;18.43;;;11.23;;
20621;SDS011;10470;42.670;23.354;2023-04-03T04:27:50;21.20;;;10.70;;
20621;SDS011;10470;42.670;23.354;2023-04-03T04:30:15;14.53;;;8.40;;
20621;SDS011;10470;42.670;23.354;2023-04-03T04:32:41;17.30;;;9.03;;
20621;SDS011;10470;42.670;23.354;2023-04-03T04:35:06;17.20;;;10.17;;
20621;SDS011;10470;42.670;23.354;2023-04-03T04:37:32;20.83;;;10.47;;
20621;SDS011;10470;42.670;23.354;2023-04-03T04:39:58;22.23;;;11.70;;
20621;SDS011;10470;42.670;23.354;2023-04-03T04:42:23;16.13;;;9.20;;
20621;SDS011;10470;42.670;23.354;2023-04-03T04:44:49;20.90;;;10.17;;
20621;SDS011;10470;42.670;23.354;2023-04-03T04:47:15;18.90;;;10.27;;
20621;SDS011;10470;42.670;23.354;2023-04-03T04:49:40;20.10;;;10.20;;
20621;SDS011;10470;42.670;23.354;2023-04-03T04:52:06;18.33;;;9.63;;
20621;SDS011;10470;42.670;23.354;2023-04-03T04:54:31;19.20;;;9.50;;
20621;SDS011;10470;42.670;23.354;2023-04-03T04:56:57;19.17;;;9.33;;
20621;SDS011;10470;42.670;23.354;2023-04-03T04:59:23;16.57;;;8.60;;
20621;SDS011;10470;42.670;23.354;2023-04-03T05:01:48;18.30;;;9.97;;
20621;SDS011;10470;42.670;23.354;2023-04-03T05:04:14;22.67;;;11.80;;
20621;SDS011;10470;42.670;23.354;2023-04-03T05:06:40;27.37;;;14.40;;
20621;SDS011;10470;42.670;23.354;2023-04-03T05:09:05;25.67;;;14.37;;
20621;SDS011;10470;42.670;23.354;2023-04-03T05:11:31;31.27;;;15.53;;
20621;SDS011;10470;42.670;23.354;2023-04-03T05:13:57;25.57;;;13.80;;
20621;SDS011;10470;42.670;23.354;2023-04-03T05:16:22;16.53;;;9.90;;
20621;SDS011;10470;42.670;23.354;2023-04-03T05:18:48;16.60;;;8.53;;
20621;SDS011;10470;42.670;23.354;2023-04-03T05:21:13;13.63;;;7.63;;
20621;SDS011;10470;42.670;23.354;2023-04-03T05:23:39;19.53;;;8.10;;
20621;SDS011;10470;42.670;23.354;2023-04-03T05:26:04;13.40;;;7.43;;
20621;SDS011;10470;42.670;23.354;2023-04-03T05:28:30;18.27;;;7.60;;
20621;SDS011;10470;42.670;23.354;2023-04-03T05:30:56;20.53;;;8.73;;
20621;SDS011;10470;42.670;23.354;2023-04-03T05:33:23;19.40;;;7.97;;
20621;SDS011;10470;42.670;23.354;2023-04-03T05:35:51;24.77;;;8.10;;
20621;SDS011;10470;42.670;23.354;2023-04-03T05:38:17;22.13;;;8.47;;
20621;SDS011;10470;42.670;23.354;2023-04-03T05:40:42;17.93;;;8.20;;
20621;SDS011;10470;42.670;23.354;2023-04-03T05:43:08;14.57;;;8.20;;
20621;SDS011;10470;42.670;23.354;2023-04-03T05:45:34;19.27;;;8.83;;
20621;SDS011;10470;42.670;23.354;2023-04-03T05:47:59;21.10;;;9.40;;
20621;SDS011;10470;42.670;23.354;2023-04-03T05:50:25;14.23;;;8.33;;
20621;SDS011;10470;42.670;23.354;2023-04-03T05:52:50;16.50;;;9.70;;
20621;SDS011;10470;42.670;23.354;2023-04-03T05:55:20;15.20;;;9.23;;
20621;SDS011;10470;42.670;23.354;2023-04-03T05:57:45;19.83;;;8.90;;
20621;SDS011;10470;42.670;23.354;2023-04-03T06:00:15;17.03;;;9.80;;
20621;SDS011;10470;42.670;23.354;2023-04-03T06:02:41;25.23;;;10.40;;
20621;SDS011;10470;42.670;23.354;2023-04-03T06:05:07;29.60;;;11.30;;
20621;SDS011;10470;42.670;23.354;2023-04-03T06:07:33;19.30;;;11.23;;
20621;SDS011;10470;42.670;23.354;2023-04-03T06:09:59;19.70;;;12.17;;
20621;SDS011;10470;42.670;23.354;2023-04-03T06:12:25;27.13;;;12.57;;
20621;SDS011;10470;42.670;23.354;2023-04-03T06:14:50;25.93;;;13.43;;
20621;SDS011;10470;42.670;23.354;2023-04-03T06:17:16;24.57;;;13.67;;
20621;SDS011;10470;42.670;23.354;2023-04-03T06:19:43;26.33;;;13.50;;
20621;SDS011;10470;42.670;23.354;2023-04-03T06:22:09;23.50;;;13.23;;
20621;SDS011;10470;42.670;23.354;2023-04-03T06:24:34;31.90;;;18.80;;
20621;SDS011;10470;42.670;23.354;2023-04-03T06:27:00;27.53;;;14.73;;
20621;SDS011;10470;42.670;23.354;2023-04-03T06:29:26;24.20;;;15.47;;
20621;SDS011;10470;42.670;23.354;2023-04-03T06:31:51;27.40;;;15.10;;
20621;SDS011;10470;42.670;23.354;2023-04-03T06:34:17;34.20;;;15.47;;
20621;SDS011;10470;42.670;23.354;2023-04-03T06:36:43;21.53;;;12.93;;
20621;SDS011;10470;42.670;23.354;2023-04-03T06:39:13;22.53;;;13.20;;
20621;SDS011;10470;42.670;23.354;2023-04-03T06:41:40;20.90;;;12.40;;
20621;SDS011;10470;42.670;23.354;2023-04-03T06:44:06;27.23;;;15.60;;
20621;SDS011;10470;42.670;23.354;2023-04-03T06:46:35;29.93;;;16.13;;
20621;SDS011;10470;42.670;23.354;2023-04-03T06:49:01;28.03;;;15.90;;
20621;SDS011;10470;42.670;23.354;2023-04-03T06:51:28;29.57;;;19.07;;
20621;SDS011;10470;42.670;23.354;2023-04-03T06:53:55;37.37;;;19.67;;
20621;SDS011;10470;42.670;23.354;2023-04-03T06:56:23;29.73;;;20.20;;
20621;SDS011;10470;42.670;23.354;2023-04-03T06:58:50;39.80;;;21.43;;
20621;SDS011;10470;42.670;23.354;2023-04-03T07:01:16;32.87;;;19.83;;
20621;SDS011;10470;42.670;23.354;2023-04-03T07:03:44;36.67;;;19.40;;
20621;SDS011;10470;42.670;23.354;2023-04-03T07:06:10;32.13;;;17.90;;
20621;SDS011;10470;42.670;23.354;2023-04-03T07:08:37;32.13;;;17.73;;
20621;SDS011;10470;42.670;23.354;2023-04-03T07:11:03;29.27;;;16.80;;
20621;SDS011;10470;42.670;23.354;2023-04-03T07:13:30;31.60;;;19.37;;
20621;SDS011;10470;42.670;23.354;2023-04-03T07:15:55;32.50;;;16.43;;
20621;SDS011;10470;42.670;23.354;2023-04-03T07:18:21;24.83;;;14.10;;
20621;SDS011;10470;42.670;23.354;2023-04-03T07:20:47;25.90;;;15.50;;
20621;SDS011;10470;42.670;23.354;2023-04-03T07:23:13;22.97;;;14.30;;
20621;SDS011;10470;42.670;23.354;2023-04-03T07:25:45;21.73;;;13.43;;
20621;SDS011;10470;42.670;23.354;2023-04-03T07:28:12;23.83;;;13.13;;
20621;SDS011;10470;42.670;23.354;2023-04-03T07:30:42;22.10;;;12.17;;
20621;SDS011;10470;42.670;23.354;2023-04-03T07:33:15;22.67;;;10.93;;
20621;SDS011;10470;42.670;23.354;2023-04-03T07:35:42;17.20;;;10.87;;
20621;SDS011;10470;42.670;23.354;2023-04-03T07:38:08;18.10;;;11.77;;
20621;SDS011;10470;42.670;23.354;2023-04-03T07:40:34;24.37;;;12.77;;
20621;SDS011;10470;42.670;23.354;2023-04-03T07:43:00;28.00;;;15.53;;
20621;SDS011;10470;42.670;23.354;2023-04-03T07:45:26;23.07;;;14.57;;
20621;SDS011;10470;42.670;23.354;2023-04-03T07:47:52;24.40;;;14.00;;
20621;SDS011;10470;42.670;23.354;2023-04-03T07:50:18;32.03;;;17.77;;
20621;SDS011;10470;42.670;23.354;2023-04-03T07:52:43;33.23;;;21.13;;
20621;SDS011;10470;42.670;23.354;2023-04-03T07:55:09;36.87;;;22.63;;
20621;SDS011;10470;42.670;23.354;2023-04-03T07:57:35;40.07;;;21.53;;
20621;SDS011;10470;42.670;23.354;2023-04-03T08:00:02;28.63;;;18.87;;
20621;SDS011;10470;42.670;23.354;2023-04-03T08:02:29;33.17;;;18.13;;
20621;SDS011;10470;42.670;23.354;2023-04-03T08:04:56;29.47;;;17.43;;
20621;SDS011;10470;42.670;23.354;2023-04-03T08:07:22;29.67;;;18.60;;
20621;SDS011;10470;42.670;23.354;2023-04-03T08:09:48;28.30;;;17.77;;
20621;SDS011;10470;42.670;23.354;2023-04-03T08:12:14;28.87;;;18.27;;
20621;SDS011;10470;42.670;23.354;2023-04-03T08:14:39;32.90;;;18.27;;
20621;SDS011;10470;42.670;23.354;2023-04-03T08:17:05;29.83;;;17.10;;
20621;SDS011;10470;42.670;23.354;2023-04-03T08:19:34;33.60;;;19.50;;
20621;SDS011;10470;42.670;23.354;2023-04-03T08:22:00;31.23;;;19.87;;
20621;SDS011;10470;42.670;23.354;2023-04-03T08:24:28;32.27;;;19.67;;
20621;SDS011;10470;42.670;23.354;2023-04-03T08:26:54;33.00;;;18.83;;
20621;SDS011;10470;42.670;23.354;2023-04-03T08:29:20;35.47;;;19.27;;
20621;SDS011;10470;42.670;23.354;2023-04-03T08:31:46;28.60;;;19.30;;
20621;SDS011;10470;42.670;23.354;2023-04-03T08:34:13;30.47;;;19.00;;
20621;SDS011;10470;42.670;23.354;2023-04-03T08:36:39;30.67;;;19.30;;
20621;SDS011;10470;42.670;23.354;2023-04-03T08:39:05;39.97;;;23.73;;
20621;SDS011;10470;42.670;23.354;2023-04-03T08:41:40;30.47;;;19.67;;
20621;SDS011;10470;42.670;23.354;2023-04-03T08:44:25;29.53;;;18.80;;
20621;SDS011;10470;42.670;23.354;2023-04-03T08:47:04;36.77;;;17.57;;
20621;SDS011;10470;42.670;23.354;2023-04-03T08:49:43;27.83;;;17.97;;
20621;SDS011;10470;42.670;23.354;2023-04-03T08:52:23;28.20;;;17.23;;
20621;SDS011;10470;42.670;23.354;2023-04-03T08:55:06;28.77;;;17.83;;
20621;SDS011;10470;42.670;23.354;2023-04-03T08:57:48;23.43;;;16.13;;
20621;SDS011;10470;42.670;23.354;2023-04-03T09:00:20;26.33;;;16.37;;
20621;SDS011;10470;42.670;23.354;2023-04-03T09:02:55;24.37;;;16.17;;
20621;SDS011;10470;42.670;23.354;2023-04-03T09:08:27;25.97;;;16.23;;
20621;SDS011;10470;42.670;23.354;2023-04-03T09:11:00;29.50;;;14.97;;
20621;SDS011;10470;42.670;23.354;2023-04-03T09:13:54;25.33;;;14.50;;
20621;SDS011;10470;42.670;23.354;2023-04-03T09:16:27;29.37;;;15.23;;
20621;SDS011;10470;42.670;23.354;2023-04-03T09:19:04;23.37;;;14.43;;
20621;SDS011;10470;42.670;23.354;2023-04-03T09:21:40;24.43;;;15.87;;
20621;SDS011;10470;42.670;23.354;2023-04-03T09:24:07;19.53;;;14.47;;
20621;SDS011;10470;42.670;23.354;2023-04-03T09:29:25;18.87;;;11.17;;
20621;SDS011;10470;42.670;23.354;2023-04-03T09:32:01;19.70;;;11.17;;
20621;SDS011;10470;42.670;23.354;2023-04-03T09:34:37;24.50;;;14.20;;
20621;SDS011;10470;42.670;23.354;2023-04-03T09:37:06;22.83;;;13.83;;
20621;SDS011;10470;42.670;23.354;2023-04-03T09:39:54;21.13;;;13.87;;
20621;SDS011;10470;42.670;23.354;2023-04-03T09:42:23;25.23;;;14.13;;
20621;SDS011;10470;42.670;23.354;2023-04-03T09:45:18;25.47;;;14.63;;
20621;SDS011;10470;42.670;23.354;2023-04-03T09:47:47;18.80;;;11.97;;
20621;SDS011;10470;42.670;23.354;2023-04-03T09:52:39;26.40;;;14.13;;
20621;SDS011;10470;42.670;23.354;2023-04-03T09:57:41;17.47;;;12.77;;
20621;SDS011;10470;42.670;23.354;2023-04-03T10:00:20;24.07;;;13.47;;
20621;SDS011;10470;42.670;23.354;2023-04-03T10:02:53;19.00;;;11.73;;
20621;SDS011;10470;42.670;23.354;2023-04-03T10:05:34;19.27;;;11.80;;
20621;SDS011;10470;42.670;23.354;2023-04-03T10:10:39;17.50;;;11.20;;
20621;SDS011;10470;42.670;23.354;2023-04-03T10:21:02;21.80;;;8.93;;
20621;SDS011;10470;42.670;23.354;2023-04-03T10:26:36;11.93;;;8.00;;
20621;SDS011;10470;42.670;23.354;2023-04-03T10:32:02;12.93;;;7.87;;
20621;SDS011;10470;42.670;23.354;2023-04-03T10:34:50;14.33;;;7.40;;
20621;SDS011;10470;42.670;23.354;2023-04-03T10:37:30;10.83;;;6.63;;
20621;SDS011;10470;42.670;23.354;2023-04-03T10:40:22;10.47;;;6.33;;
20621;SDS011;10470;42.670;23.354;2023-04-03T10:42:59;12.07;;;6.37;;
20621;SDS011;10470;42.670;23.354;2023-04-03T10:56:40;7.40;;;3.67;;
20621;SDS011;10470;42.670;23.354;2023-04-03T10:59:18;5.50;;;3.93;;
20621;SDS011;10470;42.670;23.354;2023-04-03T11:01:48;8.47;;;4.10;;
20621;SDS011;10470;42.670;23.354;2023-04-03T11:04:26;4.80;;;3.73;;
20621;SDS011;10470;42.670;23.354;2023-04-03T11:07:00;5.80;;;3.87;;
20621;SDS011;10470;42.670;23.354;2023-04-03T11:09:41;7.23;;;4.30;;
20621;SDS011;10470;42.670;23.354;2023-04-03T11:12:15;6.10;;;3.70;;
20621;SDS011;10470;42.670;23.354;2023-04-03T11:14:46;4.37;;;3.53;;
20621;SDS011;10470;42.670;23.354;2023-04-03T11:22:43;3.80;;;2.60;;
20621;SDS011;10470;42.670;23.354;2023-04-03T11:25:29;3.77;;;2.67;;
20621;SDS011;10470;42.670;23.354;2023-04-03T11:28:02;4.83;;;3.10;;
20621;SDS011;10470;42.670;23.354;2023-04-03T11:36:19;3.10;;;2.80;;
20621;SDS011;10470;42.670;23.354;2023-04-03T11:38:49;3.90;;;3.30;;
20621;SDS011;10470;42.670;23.354;2023-04-03T11:41:23;5.53;;;3.70;;
20621;SDS011;10470;42.670;23.354;2023-04-03T11:43:55;6.90;;;3.90;;
20621;SDS011;10470;42.670;23.354;2023-04-03T11:46:51;3.83;;;3.47;;
20621;SDS011;10470;42.670;23.354;2023-04-03T12:13:40;3.57;;;3.00;;
20621;SDS011;10470;42.670;23.354;2023-04-03T12:24:28;3.50;;;3.20;;
20621;SDS011;10470;42.670;23.354;2023-04-03T12:27:09;6.00;;;3.27;;
20621;SDS011;10470;42.670;23.354;2023-04-03T12:29:56;5.47;;;3.83;;
20621;SDS011;10470;42.670;23.354;2023-04-03T12:40:15;5.87;;;3.60;;
20621;SDS011;10470;42.670;23.354;2023-04-03T12:45:26;5.00;;;4.47;;
20621;SDS011;10470;42.670;23.354;2023-04-03T12:47:53;4.90;;;4.13;;
20621;SDS011;10470;42.670;23.354;2023-04-03T12:52:56;5.97;;;5.07;;
20621;SDS011;10470;42.670;23.354;2023-04-03T12:55:26;6.53;;;5.17;;
20621;SDS011;10470;42.670;23.354;2023-04-03T12:57:52;6.27;;;4.97;;
20621;SDS011;10470;42.670;23.354;2023-04-03T13:02:51;8.63;;;6.07;;
20621;SDS011;10470;42.670;23.354;2023-04-03T13:05:17;7.33;;;5.97;;
20621;SDS011;10470;42.670;23.354;2023-04-03T13:07:47;7.17;;;6.47;;
20621;SDS011;10470;42.670;23.354;2023-04-03T13:10:15;9.03;;;6.80;;
20621;SDS011;10470;42.670;23.354;2023-04-03T13:12:46;10.87;;;7.10;;
20621;SDS011;10470;42.670;23.354;2023-04-03T13:15:16;7.53;;;6.63;;
20621;SDS011;10470;42.670;23.354;2023-04-03T13:17:43;8.87;;;6.70;;
20621;SDS011;10470;42.670;23.354;2023-04-03T13:20:14;8.37;;;6.83;;
20621;SDS011;10470;42.670;23.354;2023-04-03T13:22:49;10.37;;;7.83;;
20621;SDS011;10470;42.670;23.354;2023-04-03T13:25:28;8.97;;;7.50;;
20621;SDS011;10470;42.670;23.354;2023-04-03T13:27:57;9.70;;;7.73;;
20621;SDS011;10470;42.670;23.354;2023-04-03T13:30:29;8.60;;;7.70;;
20621;SDS011;10470;42.670;23.354;2023-04-03T13:32:58;9.40;;;7.70;;
20621;SDS011;10470;42.670;23.354;2023-04-03T13:37:54;10.73;;;8.40;;
20621;SDS011;10470;42.670;23.354;2023-04-03T13:40:25;12.53;;;9.13;;
20621;SDS011;10470;42.670;23.354;2023-04-03T13:43:05;9.37;;;7.90;;
20621;SDS011;10470;42.670;23.354;2023-04-03T13:45:52;11.40;;;8.47;;
20621;SDS011;10470;42.670;23.354;2023-04-03T13:48:19;10.57;;;8.13;;
20621;SDS011;10470;42.670;23.354;2023-04-03T13:53:24;9.70;;;7.47;;
20621;SDS011;10470;42.670;23.354;2023-04-03T13:56:05;10.57;;;7.83;;
20621;SDS011;10470;42.670;23.354;2023-04-03T13:58:34;11.73;;;8.00;;
20621;SDS011;10470;42.670;23.354;2023-04-03T14:03:37;8.77;;;7.60;;
20621;SDS011;10470;42.670;23.354;2023-04-03T14:06:11;9.77;;;7.50;;
20621;SDS011;10470;42.670;23.354;2023-04-03T14:08:40;8.27;;;7.37;;
20621;SDS011;10470;42.670;23.354;2023-04-03T14:11:09;10.60;;;7.50;;
20621;SDS011;10470;42.670;23.354;2023-04-03T14:13:56;8.13;;;7.20;;
20621;SDS011;10470;42.670;23.354;2023-04-03T14:16:26;9.23;;;6.90;;
20621;SDS011;10470;42.670;23.354;2023-04-03T14:18:54;7.80;;;6.80;;
20621;SDS011;10470;42.670;23.354;2023-04-03T14:21:20;7.70;;;6.63;;
20621;SDS011;10470;42.670;23.354;2023-04-03T14:23:46;9.57;;;7.60;;
20621;SDS011;10470;42.670;23.354;2023-04-03T14:28:41;8.60;;;6.90;;
20621;SDS011;10470;42.670;23.354;2023-04-03T14:31:09;7.27;;;6.57;;
20621;SDS011;10470;42.670;23.354;2023-04-03T14:33:36;8.07;;;6.73;;
20621;SDS011;10470;42.670;23.354;2023-04-03T14:36:02;6.83;;;6.00;;
20621;SDS011;10470;42.670;23.354;2023-04-03T14:38:36;10.27;;;7.00;;
20621;SDS011;10470;42.670;23.354;2023-04-03T14:41:02;10.63;;;8.00;;
20621;SDS011;10470;42.670;23.354;2023-04-03T14:43:28;10.80;;;8.00;;
20621;SDS011;10470;42.670;23.354;2023-04-03T14:45:53;8.50;;;6.80;;
20621;SDS011;10470;42.670;23.354;2023-04-03T14:48:21;6.90;;;5.63;;
20621;SDS011;10470;42.670;23.354;2023-04-03T14:50:51;6.40;;;5.03;;
20621;SDS011;10470;42.670;23.354;2023-04-03T14:53:17;5.30;;;4.60;;
20621;SDS011;10470;42.670;23.354;2023-04-03T14:55:47;5.30;;;4.80;;
20621;SDS011;10470;42.670;23.354;2023-04-03T14:58:14;5.23;;;4.73;;
20621;SDS011;10470;42.670;23.354;2023-04-03T15:00:42;4.53;;;4.13;;
20621;SDS011;10470;42.670;23.354;2023-04-03T15:03:12;4.47;;;4.07;;
20621;SDS011;10470;42.670;23.354;2023-04-03T15:05:39;4.43;;;4.03;;
20621;SDS011;10470;42.670;23.354;2023-04-03T15:08:05;5.17;;;4.37;;
20621;SDS011;10470;42.670;23.354;2023-04-03T15:10:33;4.50;;;4.10;;
20621;SDS011;10470;42.670;23.354;2023-04-03T15:12:59;5.10;;;4.60;;
20621;SDS011;10470;42.670;23.354;2023-04-03T15:15:27;5.53;;;4.77;;
20621;SDS011;10470;42.670;23.354;2023-04-03T15:17:54;5.63;;;5.03;;
20621;SDS011;10470;42.670;23.354;2023-04-03T15:20:26;5.80;;;4.63;;
20621;SDS011;10470;42.670;23.354;2023-04-03T15:22:52;6.40;;;4.47;;
20621;SDS011;10470;42.670;23.354;2023-04-03T15:25:21;4.57;;;4.17;;
20621;SDS011;10470;42.670;23.354;2023-04-03T15:27:47;4.13;;;3.73;;
20621;SDS011;10470;42.670;23.354;2023-04-03T15:30:14;4.37;;;4.07;;
20621;SDS011;10470;42.670;23.354;2023-04-03T15:32:42;4.07;;;3.67;;
20621;SDS011;10470;42.670;23.354;2023-04-03T15:35:07;4.70;;;3.70;;
20621;SDS011;10470;42.670;23.354;2023-04-03T15:37:33;5.40;;;4.90;;
20621;SDS011;10470;42.670;23.354;2023-04-03T15:39:58;4.83;;;4.13;;
20621;SDS011;10470;42.670;23.354;2023-04-03T15:42:24;4.93;;;4.40;;
20621;SDS011;10470;42.670;23.354;2023-04-03T15:44:50;6.07;;;5.50;;
20621;SDS011;10470;42.670;23.354;2023-04-03T15:47:15;8.93;;;7.33;;
20621;SDS011;10470;42.670;23.354;2023-04-03T15:49:41;5.97;;;5.33;;
20621;SDS011;10470;42.670;23.354;2023-04-03T15:52:06;6.07;;;5.10;;
20621;SDS011;10470;42.670;23.354;2023-04-03T15:54:32;5.03;;;4.30;;
20621;SDS011;10470;42.670;23.354;2023-04-03T15:56:57;5.07;;;4.57;;
20621;SDS011;10470;42.670;23.354;2023-04-03T15:59:23;5.60;;;5.10;;
20621;SDS011;10470;42.670;23.354;2023-04-03T16:01:49;6.13;;;5.53;;
20621;SDS011;10470;42.670;23.354;2023-04-03T16:04:15;5.23;;;4.73;;
20621;SDS011;10470;42.670;23.354;2023-04-03T16:06:41;6.27;;;5.33;;
20621;SDS011;10470;42.670;23.354;2023-04-03T16:09:07;6.00;;;5.40;;
20621;SDS011;10470;42.670;23.354;2023-04-03T16:11:34;7.07;;;6.00;;
20621;SDS011;10470;42.670;23.354;2023-04-03T16:14:01;6.43;;;5.53;;
20621;SDS011;10470;42.670;23.354;2023-04-03T16:16:26;6.67;;;5.97;;
20621;SDS011;10470;42.670;23.354;2023-04-03T16:18:53;6.10;;;5.50;;
20621;SDS011;10470;42.670;23.354;2023-04-03T16:21:20;7.47;;;6.60;;
20621;SDS011;10470;42.670;23.354;2023-04-03T16:23:47;6.50;;;5.63;;
20621;SDS011;10470;42.670;23.354;2023-04-03T16:26:13;6.10;;;5.60;;